sensor_id;sensor_type;location;lat;lon;timestamp;temperature;humidity
5059;DHT22;2548;52.050;11.036;2022-07-29T00:01:55;14.70;99.90
5059;DHT22;2548;52.050;11.036;2022-07-29T00:04:22;14.60;99.90
5059;DHT22;2548;52.050;11.036;2022-07-29T00:06:51;14.70;99.90
5059;DHT22;2548;52.050;11.036;2022-07-29T00:09:18;14.70;99.90
5059;DHT22;2548;52.050;11.036;2022-07-29T00:11:46;14.70;99.90
5059;DHT22;2548;52.050;11.036;2022-07-29T00:14:14;14.80;99.90
5059;DHT22;2548;52.050;11.036;2022-07-29T00:16:41;14.80;99.90
5059;DHT22;2548;52.050;11.036;2022-07-29T00:19:08;14.80;99.90
5059;DHT22;2548;52.050;11.036;2022-07-29T00:21:36;14.70;99.90
5059;DHT22;2548;52.050;11.036;2022-07-29T00:24:05;14.70;99.90
5059;DHT22;2548;52.050;11.036;2022-07-29T00:26:33;14.60;99.90
5059;DHT22;2548;52.050;11.036;2022-07-29T00:29:03;14.60;99.90
5059;DHT22;2548;52.050;11.036;2022-07-29T00:31:30;14.50;99.90
5059;DHT22;2548;52.050;11.036;2022-07-29T00:33:58;14.50;99.90
5059;DHT22;2548;52.050;11.036;2022-07-29T00:36:25;14.50;99.90
5059;DHT22;2548;52.050;11.036;2022-07-29T00:38:52;14.40;99.90
5059;DHT22;2548;52.050;11.036;2022-07-29T00:41:20;14.40;99.90
5059;DHT22;2548;52.050;11.036;2022-07-29T00:43:48;14.30;99.90
5059;DHT22;2548;52.050;11.036;2022-07-29T00:46:15;14.30;99.90
5059;DHT22;2548;52.050;11.036;2022-07-29T00:48:43;14.20;99.90
5059;DHT22;2548;52.050;11.036;2022-07-29T00:51:10;14.20;99.90
5059;DHT22;2548;52.050;11.036;2022-07-29T00:53:38;14.20;99.90
5059;DHT22;2548;52.050;11.036;2022-07-29T00:56:06;14.10;99.90
5059;DHT22;2548;52.050;11.036;2022-07-29T00:58:34;14.10;99.90
5059;DHT22;2548;52.050;11.036;2022-07-29T01:01:02;14.00;99.90
5059;DHT22;2548;52.050;11.036;2022-07-29T01:03:29;13.90;99.90
5059;DHT22;2548;52.050;11.036;2022-07-29T01:05:57;13.80;99.90
5059;DHT22;2548;52.050;11.036;2022-07-29T01:08:24;13.80;99.90
5059;DHT22;2548;52.050;11.036;2022-07-29T01:10:52;13.70;99.90
5059;DHT22;2548;52.050;11.036;2022-07-29T01:13:20;13.60;99.90
5059;DHT22;2548;52.050;11.036;2022-07-29T01:15:56;13.60;99.90
5059;DHT22;2548;52.050;11.036;2022-07-29T01:18:30;13.60;99.90
5059;DHT22;2548;52.050;11.036;2022-07-29T01:21:24;13.70;99.90
5059;DHT22;2548;52.050;11.036;2022-07-29T01:26:47;13.80;99.90
5059;DHT22;2548;52.050;11.036;2022-07-29T01:29:22;13.80;99.90
5059;DHT22;2548;52.050;11.036;2022-07-29T01:31:56;13.80;99.90
5059;DHT22;2548;52.050;11.036;2022-07-29T01:34:27;13.80;99.90
5059;DHT22;2548;52.050;11.036;2022-07-29T01:37:04;13.90;99.90
5059;DHT22;2548;52.050;11.036;2022-07-29T01:39:36;13.90;99.90
5059;DHT22;2548;52.050;11.036;2022-07-29T01:42:09;13.80;99.90
5059;DHT22;2548;52.050;11.036;2022-07-29T01:44:44;13.80;99.90
5059;DHT22;2548;52.050;11.036;2022-07-29T01:47:21;13.80;99.90
5059;DHT22;2548;52.050;11.036;2022-07-29T01:49:52;13.80;99.90
5059;DHT22;2548;52.050;11.036;2022-07-29T01:52:27;13.90;99.90
5059;DHT22;2548;52.050;11.036;2022-07-29T01:54:58;13.90;99.90
5059;DHT22;2548;52.050;11.036;2022-07-29T01:57:29;13.90;99.90
5059;DHT22;2548;52.050;11.036;2022-07-29T02:00:01;13.80;99.90
5059;DHT22;2548;52.050;11.036;2022-07-29T02:02:40;13.90;99.90
5059;DHT22;2548;52.050;11.036;2022-07-29T02:05:10;13.80;99.90
5059;DHT22;2548;52.050;11.036;2022-07-29T02:07:40;13.90;99.90
5059;DHT22;2548;52.050;11.036;2022-07-29T02:10:12;13.90;99.90
5059;DHT22;2548;52.050;11.036;2022-07-29T02:12:40;13.90;99.90
5059;DHT22;2548;52.050;11.036;2022-07-29T02:15:12;13.90;99.90
5059;DHT22;2548;52.050;11.036;2022-07-29T02:17:42;13.90;99.90
5059;DHT22;2548;52.050;11.036;2022-07-29T02:20:12;13.90;99.90
5059;DHT22;2548;52.050;11.036;2022-07-29T02:22:41;13.90;99.90
5059;DHT22;2548;52.050;11.036;2022-07-29T02:25:10;13.80;99.90
5059;DHT22;2548;52.050;11.036;2022-07-29T02:27:39;13.80;99.90
5059;DHT22;2548;52.050;11.036;2022-07-29T02:30:07;13.80;99.90
5059;DHT22;2548;52.050;11.036;2022-07-29T02:32:38;13.80;99.90
5059;DHT22;2548;52.050;11.036;2022-07-29T02:35:08;13.80;99.90
5059;DHT22;2548;52.050;11.036;2022-07-29T02:37:37;13.90;99.90
5059;DHT22;2548;52.050;11.036;2022-07-29T02:40:09;13.90;99.90
5059;DHT22;2548;52.050;11.036;2022-07-29T02:42:39;13.90;99.90
5059;DHT22;2548;52.050;11.036;2022-07-29T02:45:09;13.90;99.90
5059;DHT22;2548;52.050;11.036;2022-07-29T02:47:42;13.90;99.90
5059;DHT22;2548;52.050;11.036;2022-07-29T02:50:13;13.90;99.90
5059;DHT22;2548;52.050;11.036;2022-07-29T02:52:44;13.90;99.90
5059;DHT22;2548;52.050;11.036;2022-07-29T02:55:16;13.90;99.90
5059;DHT22;2548;52.050;11.036;2022-07-29T02:57:49;13.90;99.90
5059;DHT22;2548;52.050;11.036;2022-07-29T03:00:18;13.90;99.90
5059;DHT22;2548;52.050;11.036;2022-07-29T03:02:51;14.00;99.90
5059;DHT22;2548;52.050;11.036;2022-07-29T03:05:20;14.00;99.90
5059;DHT22;2548;52.050;11.036;2022-07-29T03:07:53;14.00;99.90
5059;DHT22;2548;52.050;11.036;2022-07-29T03:10:21;14.00;99.90
5059;DHT22;2548;52.050;11.036;2022-07-29T03:12:49;14.10;99.90
5059;DHT22;2548;52.050;11.036;2022-07-29T03:15:18;14.10;99.90
5059;DHT22;2548;52.050;11.036;2022-07-29T03:17:47;14.10;99.90
5059;DHT22;2548;52.050;11.036;2022-07-29T03:20:16;14.10;99.90
5059;DHT22;2548;52.050;11.036;2022-07-29T03:22:44;14.10;99.90
5059;DHT22;2548;52.050;11.036;2022-07-29T03:25:13;14.10;99.90
5059;DHT22;2548;52.050;11.036;2022-07-29T03:27:42;14.10;99.90
5059;DHT22;2548;52.050;11.036;2022-07-29T03:30:11;14.10;99.90
5059;DHT22;2548;52.050;11.036;2022-07-29T03:32:39;14.20;99.90
5059;DHT22;2548;52.050;11.036;2022-07-29T03:35:08;14.20;99.90
5059;DHT22;2548;52.050;11.036;2022-07-29T03:37:36;14.30;99.90
5059;DHT22;2548;52.050;11.036;2022-07-29T03:40:07;14.30;99.90
5059;DHT22;2548;52.050;11.036;2022-07-29T03:42:37;14.50;99.90
5059;DHT22;2548;52.050;11.036;2022-07-29T03:45:09;14.60;99.90
5059;DHT22;2548;52.050;11.036;2022-07-29T03:47:40;14.60;99.90
5059;DHT22;2548;52.050;11.036;2022-07-29T03:50:12;14.70;99.90
5059;DHT22;2548;52.050;11.036;2022-07-29T03:52:41;14.60;99.90
5059;DHT22;2548;52.050;11.036;2022-07-29T03:55:09;14.60;99.90
5059;DHT22;2548;52.050;11.036;2022-07-29T03:57:38;14.60;99.90
5059;DHT22;2548;52.050;11.036;2022-07-29T04:00:07;14.60;99.90
5059;DHT22;2548;52.050;11.036;2022-07-29T04:02:35;14.50;99.90
5059;DHT22;2548;52.050;11.036;2022-07-29T04:05:03;14.50;99.90
5059;DHT22;2548;52.050;11.036;2022-07-29T04:07:32;14.50;99.90
5059;DHT22;2548;52.050;11.036;2022-07-29T04:10:00;14.40;99.90
5059;DHT22;2548;52.050;11.036;2022-07-29T04:12:27;14.50;99.90
5059;DHT22;2548;52.050;11.036;2022-07-29T04:14:55;14.60;99.90
5059;DHT22;2548;52.050;11.036;2022-07-29T04:17:22;14.60;99.90
5059;DHT22;2548;52.050;11.036;2022-07-29T04:19:49;14.50;99.90
5059;DHT22;2548;52.050;11.036;2022-07-29T04:22:17;14.60;99.90
5059;DHT22;2548;52.050;11.036;2022-07-29T04:24:45;14.60;99.90
5059;DHT22;2548;52.050;11.036;2022-07-29T04:27:13;14.70;99.90
5059;DHT22;2548;52.050;11.036;2022-07-29T04:29:40;14.60;99.90
5059;DHT22;2548;52.050;11.036;2022-07-29T04:32:08;14.60;99.90
5059;DHT22;2548;52.050;11.036;2022-07-29T04:34:35;14.60;99.90
5059;DHT22;2548;52.050;11.036;2022-07-29T04:37:02;14.50;99.90
5059;DHT22;2548;52.050;11.036;2022-07-29T04:39:30;14.50;99.90
5059;DHT22;2548;52.050;11.036;2022-07-29T04:41:59;14.50;99.90
5059;DHT22;2548;52.050;11.036;2022-07-29T04:44:26;14.50;99.90
5059;DHT22;2548;52.050;11.036;2022-07-29T04:46:55;14.60;99.90
5059;DHT22;2548;52.050;11.036;2022-07-29T04:49:22;14.60;99.90
5059;DHT22;2548;52.050;11.036;2022-07-29T04:51:50;14.60;99.90
5059;DHT22;2548;52.050;11.036;2022-07-29T04:54:17;14.70;99.90
5059;DHT22;2548;52.050;11.036;2022-07-29T04:56:45;14.70;99.90
5059;DHT22;2548;52.050;11.036;2022-07-29T04:59:14;14.80;99.90
5059;DHT22;2548;52.050;11.036;2022-07-29T05:01:41;14.80;99.90
5059;DHT22;2548;52.050;11.036;2022-07-29T05:04:08;14.90;99.90
5059;DHT22;2548;52.050;11.036;2022-07-29T05:06:36;15.00;99.90
5059;DHT22;2548;52.050;11.036;2022-07-29T05:09:03;15.10;99.90
5059;DHT22;2548;52.050;11.036;2022-07-29T05:11:31;15.20;99.90
5059;DHT22;2548;52.050;11.036;2022-07-29T05:13:58;15.30;99.90
5059;DHT22;2548;52.050;11.036;2022-07-29T05:16:27;15.40;99.90
5059;DHT22;2548;52.050;11.036;2022-07-29T05:18:54;15.50;99.90
5059;DHT22;2548;52.050;11.036;2022-07-29T05:21:21;15.60;99.90
5059;DHT22;2548;52.050;11.036;2022-07-29T05:23:49;15.70;99.90
5059;DHT22;2548;52.050;11.036;2022-07-29T05:26:16;15.70;99.90
5059;DHT22;2548;52.050;11.036;2022-07-29T05:28:44;15.70;99.90
5059;DHT22;2548;52.050;11.036;2022-07-29T05:31:11;15.80;99.90
5059;DHT22;2548;52.050;11.036;2022-07-29T05:33:42;15.90;99.90
5059;DHT22;2548;52.050;11.036;2022-07-29T05:36:09;16.00;99.90
5059;DHT22;2548;52.050;11.036;2022-07-29T05:38:37;16.10;99.90
5059;DHT22;2548;52.050;11.036;2022-07-29T05:41:05;16.20;99.90
5059;DHT22;2548;52.050;11.036;2022-07-29T05:43:32;16.30;99.90
5059;DHT22;2548;52.050;11.036;2022-07-29T05:46:00;16.40;99.90
5059;DHT22;2548;52.050;11.036;2022-07-29T05:48:27;16.50;99.90
5059;DHT22;2548;52.050;11.036;2022-07-29T05:50:56;16.60;99.90
5059;DHT22;2548;52.050;11.036;2022-07-29T05:53:24;16.60;99.90
5059;DHT22;2548;52.050;11.036;2022-07-29T05:55:51;16.70;99.90
5059;DHT22;2548;52.050;11.036;2022-07-29T05:58:19;16.80;99.90
5059;DHT22;2548;52.050;11.036;2022-07-29T06:00:46;16.80;99.90
5059;DHT22;2548;52.050;11.036;2022-07-29T06:03:14;16.80;99.90
5059;DHT22;2548;52.050;11.036;2022-07-29T06:05:41;16.80;99.90
5059;DHT22;2548;52.050;11.036;2022-07-29T06:08:10;16.80;99.90
5059;DHT22;2548;52.050;11.036;2022-07-29T06:10:38;16.80;99.90
5059;DHT22;2548;52.050;11.036;2022-07-29T06:13:05;16.80;99.90
5059;DHT22;2548;52.050;11.036;2022-07-29T06:15:32;16.80;99.90
5059;DHT22;2548;52.050;11.036;2022-07-29T06:18:00;16.90;99.90
5059;DHT22;2548;52.050;11.036;2022-07-29T06:20:27;17.00;99.90
5059;DHT22;2548;52.050;11.036;2022-07-29T06:22:56;17.10;99.90
5059;DHT22;2548;52.050;11.036;2022-07-29T06:25:25;17.10;99.90
5059;DHT22;2548;52.050;11.036;2022-07-29T06:27:53;17.10;99.90
5059;DHT22;2548;52.050;11.036;2022-07-29T06:30:21;17.20;99.90
5059;DHT22;2548;52.050;11.036;2022-07-29T06:32:48;17.30;99.90
5059;DHT22;2548;52.050;11.036;2022-07-29T06:35:16;17.30;99.90
5059;DHT22;2548;52.050;11.036;2022-07-29T06:37:43;17.50;99.90
5059;DHT22;2548;52.050;11.036;2022-07-29T06:40:11;17.50;99.90
5059;DHT22;2548;52.050;11.036;2022-07-29T06:42:57;17.60;99.90
5059;DHT22;2548;52.050;11.036;2022-07-29T06:45:25;17.70;99.90
5059;DHT22;2548;52.050;11.036;2022-07-29T06:47:52;17.70;99.90
5059;DHT22;2548;52.050;11.036;2022-07-29T06:50:20;17.80;99.90
5059;DHT22;2548;52.050;11.036;2022-07-29T06:52:48;17.80;99.90
5059;DHT22;2548;52.050;11.036;2022-07-29T06:55:15;17.80;99.90
5059;DHT22;2548;52.050;11.036;2022-07-29T06:57:45;17.90;99.90
5059;DHT22;2548;52.050;11.036;2022-07-29T07:00:14;17.90;99.90
5059;DHT22;2548;52.050;11.036;2022-07-29T07:02:42;18.00;99.90
5059;DHT22;2548;52.050;11.036;2022-07-29T07:05:09;18.20;99.90
5059;DHT22;2548;52.050;11.036;2022-07-29T07:07:37;18.30;99.90
5059;DHT22;2548;52.050;11.036;2022-07-29T07:10:05;18.40;99.90
5059;DHT22;2548;52.050;11.036;2022-07-29T07:12:33;18.50;99.90
5059;DHT22;2548;52.050;11.036;2022-07-29T07:15:00;18.60;99.90
5059;DHT22;2548;52.050;11.036;2022-07-29T07:17:29;18.80;99.90
5059;DHT22;2548;52.050;11.036;2022-07-29T07:19:56;18.90;99.90
5059;DHT22;2548;52.050;11.036;2022-07-29T07:22:24;19.00;99.90
5059;DHT22;2548;52.050;11.036;2022-07-29T07:24:51;19.20;99.90
5059;DHT22;2548;52.050;11.036;2022-07-29T07:27:19;19.40;99.90
5059;DHT22;2548;52.050;11.036;2022-07-29T07:29:46;19.60;99.90
5059;DHT22;2548;52.050;11.036;2022-07-29T07:32:13;19.60;99.90
5059;DHT22;2548;52.050;11.036;2022-07-29T07:34:43;19.70;99.90
5059;DHT22;2548;52.050;11.036;2022-07-29T07:37:11;19.70;99.90
5059;DHT22;2548;52.050;11.036;2022-07-29T07:39:38;19.90;99.90
5059;DHT22;2548;52.050;11.036;2022-07-29T07:42:06;20.20;99.90
5059;DHT22;2548;52.050;11.036;2022-07-29T07:44:33;20.40;99.90
5059;DHT22;2548;52.050;11.036;2022-07-29T07:47:01;20.70;99.90
5059;DHT22;2548;52.050;11.036;2022-07-29T07:49:28;20.80;99.90
5059;DHT22;2548;52.050;11.036;2022-07-29T07:51:57;20.90;99.90
5059;DHT22;2548;52.050;11.036;2022-07-29T07:54:25;21.00;99.90
5059;DHT22;2548;52.050;11.036;2022-07-29T07:56:53;21.10;99.90
5059;DHT22;2548;52.050;11.036;2022-07-29T07:59:23;21.20;99.90
5059;DHT22;2548;52.050;11.036;2022-07-29T08:01:50;21.20;99.90
5059;DHT22;2548;52.050;11.036;2022-07-29T08:04:18;21.30;99.90
5059;DHT22;2548;52.050;11.036;2022-07-29T08:06:45;21.30;99.90
5059;DHT22;2548;52.050;11.036;2022-07-29T08:09:17;21.40;99.80
5059;DHT22;2548;52.050;11.036;2022-07-29T08:11:44;21.60;99.80
5059;DHT22;2548;52.050;11.036;2022-07-29T08:14:15;21.60;99.30
5059;DHT22;2548;52.050;11.036;2022-07-29T08:16:43;21.70;99.00
5059;DHT22;2548;52.050;11.036;2022-07-29T08:19:10;21.70;98.70
5059;DHT22;2548;52.050;11.036;2022-07-29T08:21:38;21.80;98.70
5059;DHT22;2548;52.050;11.036;2022-07-29T08:24:06;21.90;98.60
5059;DHT22;2548;52.050;11.036;2022-07-29T08:26:52;22.00;98.30
5059;DHT22;2548;52.050;11.036;2022-07-29T08:29:20;22.00;98.10
5059;DHT22;2548;52.050;11.036;2022-07-29T08:31:47;22.10;98.40
5059;DHT22;2548;52.050;11.036;2022-07-29T08:34:15;22.10;97.80
5059;DHT22;2548;52.050;11.036;2022-07-29T08:36:42;22.20;98.00
5059;DHT22;2548;52.050;11.036;2022-07-29T08:39:10;22.20;97.80
5059;DHT22;2548;52.050;11.036;2022-07-29T08:41:38;22.30;97.60
5059;DHT22;2548;52.050;11.036;2022-07-29T08:44:07;22.50;97.60
5059;DHT22;2548;52.050;11.036;2022-07-29T08:46:37;22.70;97.60
5059;DHT22;2548;52.050;11.036;2022-07-29T08:49:05;22.90;97.10
5059;DHT22;2548;52.050;11.036;2022-07-29T08:51:33;23.10;96.70
5059;DHT22;2548;52.050;11.036;2022-07-29T08:54:02;23.30;96.40
5059;DHT22;2548;52.050;11.036;2022-07-29T08:56:30;23.30;96.20
5059;DHT22;2548;52.050;11.036;2022-07-29T08:58:58;23.40;96.00
5059;DHT22;2548;52.050;11.036;2022-07-29T09:01:29;23.60;95.80
5059;DHT22;2548;52.050;11.036;2022-07-29T09:03:57;23.90;96.10
5059;DHT22;2548;52.050;11.036;2022-07-29T09:06:31;24.20;96.00
5059;DHT22;2548;52.050;11.036;2022-07-29T09:09:00;24.40;95.80
5059;DHT22;2548;52.050;11.036;2022-07-29T09:11:28;24.60;95.00
5059;DHT22;2548;52.050;11.036;2022-07-29T09:13:55;24.80;94.70
5059;DHT22;2548;52.050;11.036;2022-07-29T09:16:23;24.90;95.00
5059;DHT22;2548;52.050;11.036;2022-07-29T09:18:52;25.00;95.10
5059;DHT22;2548;52.050;11.036;2022-07-29T09:21:19;25.10;94.40
5059;DHT22;2548;52.050;11.036;2022-07-29T09:24:07;25.20;93.60
5059;DHT22;2548;52.050;11.036;2022-07-29T09:26:38;25.20;94.30
5059;DHT22;2548;52.050;11.036;2022-07-29T09:29:11;25.40;93.60
5059;DHT22;2548;52.050;11.036;2022-07-29T09:31:41;25.40;94.00
5059;DHT22;2548;52.050;11.036;2022-07-29T09:34:10;25.40;94.20
5059;DHT22;2548;52.050;11.036;2022-07-29T09:36:40;25.50;94.10
5059;DHT22;2548;52.050;11.036;2022-07-29T09:39:07;25.60;94.20
5059;DHT22;2548;52.050;11.036;2022-07-29T09:41:49;25.80;93.70
5059;DHT22;2548;52.050;11.036;2022-07-29T09:44:20;26.00;93.30
5059;DHT22;2548;52.050;11.036;2022-07-29T09:46:58;26.00;92.80
5059;DHT22;2548;52.050;11.036;2022-07-29T09:49:33;26.30;93.00
5059;DHT22;2548;52.050;11.036;2022-07-29T09:52:06;26.40;92.80
5059;DHT22;2548;52.050;11.036;2022-07-29T09:54:35;26.40;91.80
5059;DHT22;2548;52.050;11.036;2022-07-29T09:57:07;26.40;91.50
5059;DHT22;2548;52.050;11.036;2022-07-29T09:59:36;26.70;91.30
5059;DHT22;2548;52.050;11.036;2022-07-29T10:02:11;26.70;91.20
5059;DHT22;2548;52.050;11.036;2022-07-29T10:04:44;26.50;91.20
5059;DHT22;2548;52.050;11.036;2022-07-29T10:07:11;26.20;91.10
5059;DHT22;2548;52.050;11.036;2022-07-29T10:09:39;25.90;91.80
5059;DHT22;2548;52.050;11.036;2022-07-29T10:12:16;25.70;92.00
5059;DHT22;2548;52.050;11.036;2022-07-29T10:14:44;25.60;92.10
5059;DHT22;2548;52.050;11.036;2022-07-29T10:17:12;25.50;92.10
5059;DHT22;2548;52.050;11.036;2022-07-29T10:19:39;25.50;92.00
5059;DHT22;2548;52.050;11.036;2022-07-29T10:22:10;25.60;91.90
5059;DHT22;2548;52.050;11.036;2022-07-29T10:24:38;25.80;91.90
5059;DHT22;2548;52.050;11.036;2022-07-29T10:27:07;26.20;91.40
5059;DHT22;2548;52.050;11.036;2022-07-29T10:29:36;26.60;91.20
5059;DHT22;2548;52.050;11.036;2022-07-29T10:32:31;27.00;91.00
5059;DHT22;2548;52.050;11.036;2022-07-29T10:35:12;27.30;90.80
5059;DHT22;2548;52.050;11.036;2022-07-29T10:37:59;27.70;89.20
5059;DHT22;2548;52.050;11.036;2022-07-29T10:40:39;27.90;86.90
5059;DHT22;2548;52.050;11.036;2022-07-29T10:43:33;27.80;85.90
5059;DHT22;2548;52.050;11.036;2022-07-29T10:46:04;27.80;86.90
5059;DHT22;2548;52.050;11.036;2022-07-29T10:48:32;27.90;86.30
5059;DHT22;2548;52.050;11.036;2022-07-29T10:51:02;28.00;85.90
5059;DHT22;2548;52.050;11.036;2022-07-29T10:53:52;28.00;83.60
5059;DHT22;2548;52.050;11.036;2022-07-29T10:56:24;27.90;82.70
5059;DHT22;2548;52.050;11.036;2022-07-29T10:59:22;27.80;82.40
5059;DHT22;2548;52.050;11.036;2022-07-29T11:01:51;27.70;83.20
5059;DHT22;2548;52.050;11.036;2022-07-29T11:04:58;27.70;83.00
5059;DHT22;2548;52.050;11.036;2022-07-29T11:07:26;27.60;83.20
5059;DHT22;2548;52.050;11.036;2022-07-29T11:10:22;27.60;82.60
5059;DHT22;2548;52.050;11.036;2022-07-29T11:12:50;27.60;82.80
5059;DHT22;2548;52.050;11.036;2022-07-29T11:15:20;27.50;81.30
5059;DHT22;2548;52.050;11.036;2022-07-29T11:18:07;27.40;81.00
5059;DHT22;2548;52.050;11.036;2022-07-29T11:20:39;27.30;79.40
5059;DHT22;2548;52.050;11.036;2022-07-29T11:23:25;27.30;79.60
5059;DHT22;2548;52.050;11.036;2022-07-29T11:26:14;27.20;80.10
5059;DHT22;2548;52.050;11.036;2022-07-29T11:28:58;27.20;79.90
5059;DHT22;2548;52.050;11.036;2022-07-29T11:31:36;27.10;78.20
5059;DHT22;2548;52.050;11.036;2022-07-29T11:34:17;27.10;79.30
5059;DHT22;2548;52.050;11.036;2022-07-29T11:37:17;27.00;80.00
5059;DHT22;2548;52.050;11.036;2022-07-29T11:39:46;27.00;79.50
5059;DHT22;2548;52.050;11.036;2022-07-29T11:42:46;26.90;79.40
5059;DHT22;2548;52.050;11.036;2022-07-29T11:45:16;26.90;79.70
5059;DHT22;2548;52.050;11.036;2022-07-29T11:47:53;26.90;80.40
5059;DHT22;2548;52.050;11.036;2022-07-29T11:50:32;26.80;80.40
5059;DHT22;2548;52.050;11.036;2022-07-29T11:53:01;26.70;80.70
5059;DHT22;2548;52.050;11.036;2022-07-29T11:55:30;26.80;80.80
5059;DHT22;2548;52.050;11.036;2022-07-29T11:58:03;26.80;81.10
5059;DHT22;2548;52.050;11.036;2022-07-29T12:00:32;26.80;81.30
5059;DHT22;2548;52.050;11.036;2022-07-29T12:03:01;26.90;81.90
5059;DHT22;2548;52.050;11.036;2022-07-29T12:05:35;27.00;79.10
5059;DHT22;2548;52.050;11.036;2022-07-29T12:08:21;27.10;79.70
5059;DHT22;2548;52.050;11.036;2022-07-29T12:10:50;27.20;78.30
5059;DHT22;2548;52.050;11.036;2022-07-29T12:13:20;27.30;77.50
5059;DHT22;2548;52.050;11.036;2022-07-29T12:15:55;27.30;77.60
5059;DHT22;2548;52.050;11.036;2022-07-29T12:18:24;27.40;76.60
5059;DHT22;2548;52.050;11.036;2022-07-29T12:20:57;27.40;78.30
5059;DHT22;2548;52.050;11.036;2022-07-29T12:23:25;27.40;77.50
5059;DHT22;2548;52.050;11.036;2022-07-29T12:25:52;27.40;77.70
5059;DHT22;2548;52.050;11.036;2022-07-29T12:28:21;27.50;77.80
5059;DHT22;2548;52.050;11.036;2022-07-29T12:30:49;27.60;78.20
5059;DHT22;2548;52.050;11.036;2022-07-29T12:33:22;27.50;79.10
5059;DHT22;2548;52.050;11.036;2022-07-29T12:35:51;27.60;78.30
5059;DHT22;2548;52.050;11.036;2022-07-29T12:38:19;27.60;77.80
5059;DHT22;2548;52.050;11.036;2022-07-29T12:40:48;27.70;76.70
5059;DHT22;2548;52.050;11.036;2022-07-29T12:43:18;27.70;77.20
5059;DHT22;2548;52.050;11.036;2022-07-29T12:45:48;27.70;77.20
5059;DHT22;2548;52.050;11.036;2022-07-29T12:48:17;27.70;77.80
5059;DHT22;2548;52.050;11.036;2022-07-29T12:50:55;27.60;76.30
5059;DHT22;2548;52.050;11.036;2022-07-29T12:53:24;27.50;77.30
5059;DHT22;2548;52.050;11.036;2022-07-29T12:55:52;27.40;76.90
5059;DHT22;2548;52.050;11.036;2022-07-29T12:58:31;27.30;75.30
5059;DHT22;2548;52.050;11.036;2022-07-29T13:01:05;27.20;76.80
5059;DHT22;2548;52.050;11.036;2022-07-29T13:03:44;27.20;78.50
5059;DHT22;2548;52.050;11.036;2022-07-29T13:06:33;27.10;77.70
5059;DHT22;2548;52.050;11.036;2022-07-29T13:09:05;27.10;78.00
5059;DHT22;2548;52.050;11.036;2022-07-29T13:11:35;27.00;78.20
5059;DHT22;2548;52.050;11.036;2022-07-29T13:14:03;27.00;78.80
5059;DHT22;2548;52.050;11.036;2022-07-29T13:16:32;27.00;78.50
5059;DHT22;2548;52.050;11.036;2022-07-29T13:19:08;27.00;77.90
5059;DHT22;2548;52.050;11.036;2022-07-29T13:21:37;26.90;78.00
5059;DHT22;2548;52.050;11.036;2022-07-29T13:24:06;26.90;78.20
5059;DHT22;2548;52.050;11.036;2022-07-29T13:26:36;26.90;77.50
5059;DHT22;2548;52.050;11.036;2022-07-29T13:29:06;26.90;77.60
5059;DHT22;2548;52.050;11.036;2022-07-29T13:31:35;26.80;77.50
5059;DHT22;2548;52.050;11.036;2022-07-29T13:34:03;26.80;78.70
5059;DHT22;2548;52.050;11.036;2022-07-29T13:36:31;26.80;78.20
5059;DHT22;2548;52.050;11.036;2022-07-29T13:38:58;26.70;77.40
5059;DHT22;2548;52.050;11.036;2022-07-29T13:41:28;26.70;78.10
5059;DHT22;2548;52.050;11.036;2022-07-29T13:43:56;26.70;78.60
5059;DHT22;2548;52.050;11.036;2022-07-29T13:46:24;26.70;78.70
5059;DHT22;2548;52.050;11.036;2022-07-29T13:48:53;26.70;77.80
5059;DHT22;2548;52.050;11.036;2022-07-29T13:51:20;26.70;79.00
5059;DHT22;2548;52.050;11.036;2022-07-29T13:53:48;26.70;79.20
5059;DHT22;2548;52.050;11.036;2022-07-29T13:56:15;26.70;78.40
5059;DHT22;2548;52.050;11.036;2022-07-29T13:58:43;26.70;79.50
5059;DHT22;2548;52.050;11.036;2022-07-29T14:01:10;26.60;79.10
5059;DHT22;2548;52.050;11.036;2022-07-29T14:03:38;26.60;78.80
5059;DHT22;2548;52.050;11.036;2022-07-29T14:06:09;26.60;78.50
5059;DHT22;2548;52.050;11.036;2022-07-29T14:08:36;26.50;77.80
5059;DHT22;2548;52.050;11.036;2022-07-29T14:11:04;26.60;78.40
5059;DHT22;2548;52.050;11.036;2022-07-29T14:13:32;26.60;78.50
5059;DHT22;2548;52.050;11.036;2022-07-29T14:15:59;26.70;79.70
5059;DHT22;2548;52.050;11.036;2022-07-29T14:18:27;26.80;79.70
5059;DHT22;2548;52.050;11.036;2022-07-29T14:20:55;27.00;80.60
5059;DHT22;2548;52.050;11.036;2022-07-29T14:23:24;27.20;79.80
5059;DHT22;2548;52.050;11.036;2022-07-29T14:25:51;27.40;78.70
5059;DHT22;2548;52.050;11.036;2022-07-29T14:28:19;27.50;78.60
5059;DHT22;2548;52.050;11.036;2022-07-29T14:30:47;27.70;76.90
5059;DHT22;2548;52.050;11.036;2022-07-29T14:33:14;27.90;76.50
5059;DHT22;2548;52.050;11.036;2022-07-29T14:35:42;28.10;78.30
5059;DHT22;2548;52.050;11.036;2022-07-29T14:38:10;28.20;76.70
5059;DHT22;2548;52.050;11.036;2022-07-29T14:40:39;28.30;77.60
5059;DHT22;2548;52.050;11.036;2022-07-29T14:43:06;28.40;76.90
5059;DHT22;2548;52.050;11.036;2022-07-29T14:45:34;28.70;76.50
5059;DHT22;2548;52.050;11.036;2022-07-29T14:48:02;28.70;75.60
5059;DHT22;2548;52.050;11.036;2022-07-29T14:50:29;28.30;74.80
5059;DHT22;2548;52.050;11.036;2022-07-29T14:52:57;28.30;77.00
5059;DHT22;2548;52.050;11.036;2022-07-29T14:55:25;28.30;77.00
5059;DHT22;2548;52.050;11.036;2022-07-29T14:57:54;28.30;77.30
5059;DHT22;2548;52.050;11.036;2022-07-29T15:00:21;28.30;77.00
5059;DHT22;2548;52.050;11.036;2022-07-29T15:02:49;28.40;77.40
5059;DHT22;2548;52.050;11.036;2022-07-29T15:05:17;28.50;77.80
5059;DHT22;2548;52.050;11.036;2022-07-29T15:07:44;28.80;77.00
5059;DHT22;2548;52.050;11.036;2022-07-29T15:10:12;29.10;77.60
5059;DHT22;2548;52.050;11.036;2022-07-29T15:12:40;29.40;75.30
5059;DHT22;2548;52.050;11.036;2022-07-29T15:15:09;29.40;74.60
5059;DHT22;2548;52.050;11.036;2022-07-29T15:17:36;29.70;76.20
5059;DHT22;2548;52.050;11.036;2022-07-29T15:20:05;30.00;75.50
5059;DHT22;2548;52.050;11.036;2022-07-29T15:22:33;30.30;73.90
5059;DHT22;2548;52.050;11.036;2022-07-29T15:25:00;30.40;72.90
5059;DHT22;2548;52.050;11.036;2022-07-29T15:27:28;30.40;73.00
5059;DHT22;2548;52.050;11.036;2022-07-29T15:29:56;30.20;72.10
5059;DHT22;2548;52.050;11.036;2022-07-29T15:32:25;30.00;72.30
5059;DHT22;2548;52.050;11.036;2022-07-29T15:34:53;29.90;72.10
5059;DHT22;2548;52.050;11.036;2022-07-29T15:37:21;29.80;72.40
5059;DHT22;2548;52.050;11.036;2022-07-29T15:39:48;29.40;72.10
5059;DHT22;2548;52.050;11.036;2022-07-29T15:42:16;29.30;72.80
5059;DHT22;2548;52.050;11.036;2022-07-29T15:44:44;29.00;72.50
5059;DHT22;2548;52.050;11.036;2022-07-29T15:47:11;28.90;72.70
5059;DHT22;2548;52.050;11.036;2022-07-29T15:49:41;28.80;73.50
5059;DHT22;2548;52.050;11.036;2022-07-29T15:52:09;28.70;74.20
5059;DHT22;2548;52.050;11.036;2022-07-29T15:54:38;28.70;73.50
5059;DHT22;2548;52.050;11.036;2022-07-29T15:57:07;28.40;73.00
5059;DHT22;2548;52.050;11.036;2022-07-29T15:59:34;28.40;74.40
5059;DHT22;2548;52.050;11.036;2022-07-29T16:02:02;28.40;74.40
5059;DHT22;2548;52.050;11.036;2022-07-29T16:04:30;28.40;74.80
5059;DHT22;2548;52.050;11.036;2022-07-29T16:06:59;28.30;74.50